This is the latest recevied weather packets stored in our database for station/object W8BS. If no packets are shown the sender has not sent any weather packets the latest 10 day(s).
| Time | Temp. | Humidity | Pressure | Rain* | Wind** | Luminosity | Snow |
|---|---|---|---|---|---|---|---|
| 1777737051 | 7.22° C | 59% | 1014.1 hPa | 0 mm | - | 189 W/m² | - |
| 1777736746 | 7.78° C | 60% | 1013.9 hPa | 0 mm | - | 247 W/m² | - |
| 1777736119 | 6.67° C | 65% | 1014.4 hPa | 0 mm | - | 826 W/m² | - |
| 1777735816 | 6.67° C | 65% | 1014.3 hPa | 0 mm | - | 324 W/m² | - |
| 1777735513 | 7.78° C | 64% | 1014.2 hPa | 0 mm | - | 196 W/m² | - |
| 1777735211 | 7.22° C | 65% | 1014 hPa | 0 mm | - | 406 W/m² | - |
| 1777734907 | 6.67° C | 67% | 1014.2 hPa | 0 mm | - | 209 W/m² | - |
| 1777734605 | 6.67° C | 66% | 1014.1 hPa | 0 mm | - | 255 W/m² | - |
| 1777734302 | 6.11° C | 70% | 1014.4 hPa | 0 mm | - | 750 W/m² | - |
| 1777733997 | 6.11° C | 69% | 1014.4 hPa | 0 mm | - | 128 W/m² | - |
| 1777733695 | 6.67° C | 68% | 1014.3 hPa | 0 mm | - | 222 W/m² | - |
| 1777733391 | 7.22° C | 65% | 1014.2 hPa | 0 mm | - | 226 W/m² | - |
| 1777733088 | 7.22° C | 65% | 1014.2 hPa | 0 mm | - | 422 W/m² | - |
| 1777732784 | 7.22° C | 66% | 1014.2 hPa | 0 mm | - | 447 W/m² | - |
| 1777732481 | 6.67° C | 70% | 1014.1 hPa | 0 mm | - | 196 W/m² | - |
| 1777732178 | 7.22° C | 67% | 1014.1 hPa | 0 mm | - | 770 W/m² | - |
| 1777731875 | 6.67° C | 72% | 1014.1 hPa | 0 mm | - | 550 W/m² | - |
| 1777731572 | 6.67° C | 71% | 1014.1 hPa | 0 mm | - | 706 W/m² | - |
| 1777731270 | 6.11° C | 71% | 1014 hPa | 0 mm | - | 496 W/m² | - |
| 1777730967 | 6.11° C | 73% | 1014.2 hPa | 0 mm | - | 253 W/m² | - |
| 1777730666 | 6.11° C | 76% | 1014.3 hPa | 0 mm | - | 723 W/m² | - |
| 1777730361 | 6.67° C | 73% | 1014.3 hPa | 0 mm | - | 642 W/m² | - |
| 1777730058 | 6.11° C | 79% | 1014.2 hPa | 0 mm | - | 669 W/m² | - |
| 1777729754 | 5.56° C | 80% | 1014 hPa | 0 mm | - | 155 W/m² | - |
| 1777729451 | 6.11° C | 79% | 1014.2 hPa | 0 mm | - | 404 W/m² | - |
* Rain latest hour (hover to see other rain measurements)
** Current wind speed in m/s (hover to see current wind gust speed)